Time;durP1;ratioP1;P1;durP2;ratioP2;P2;SDS_P1;SDS_P2;PMS_P1;PMS_P2;Temp;Humidity;BMP_temperature;BMP_pressure;BME280_temperature;BME280_humidity;BME280_pressure;Samples;Min_cycle;Max_cycle;Signal;HPM_P1;HPM_P2
2021/05/02 00:00:40;;;;;;;9.57;8.48;;;;;;;3.37;100.00;92539.00;2081951;28;20389;-83
2021/05/02 00:01:43;;;;;;;10.18;8.93;;;;;;;3.36;100.00;92542.78;2090394;28;20021;-82
2021/05/02 00:02:45;;;;;;;10.82;9.27;;;;;;;3.51;100.00;92546.09;2090163;28;20120;-83
2021/05/02 00:03:45;;;;;;;10.55;9.35;;;;;;;3.40;100.00;92540.88;2082036;28;20048;-86
2021/05/02 00:04:46;;;;;;;10.80;9.70;;;;;;;3.48;100.00;92550.28;2091163;28;20119;-86
2021/05/02 00:05:47;;;;;;;12.10;9.40;;;;;;;3.49;100.00;92546.50;2106592;28;20039;-83
2021/05/02 00:06:48;;;;;;;12.00;10.18;;;;;;;3.38;100.00;92543.16;2106773;28;20031;-84
2021/05/02 00:07:49;;;;;;;12.93;10.45;;;;;;;3.35;100.00;92556.38;2106685;28;20023;-83
2021/05/02 00:08:50;;;;;;;12.20;9.85;;;;;;;3.33;100.00;92546.19;2098446;28;20477;-84
2021/05/02 00:09:50;;;;;;;13.18;10.55;;;;;;;3.36;100.00;92553.34;2098293;28;20085;-85
2021/05/02 00:10:51;;;;;;;11.30;9.75;;;;;;;3.33;100.00;92546.19;2098359;28;20055;-85
2021/05/02 00:11:52;;;;;;;12.55;10.07;;;;;;;3.35;100.00;92545.81;2098489;28;20052;-84
2021/05/02 00:12:53;;;;;;;13.18;9.98;;;;;;;3.33;100.00;92548.06;2098394;28;20025;-85
2021/05/02 00:13:54;;;;;;;14.13;10.75;;;;;;;3.35;100.00;92554.50;2106712;28;20028;-81
2021/05/02 00:14:55;;;;;;;14.93;10.93;;;;;;;3.33;100.00;92558.63;2115158;28;20035;-83
2021/05/02 00:15:55;;;;;;;16.35;10.90;;;;;;;3.23;100.00;92560.19;2115243;28;20125;-82
2021/05/02 00:16:56;;;;;;;15.05;11.57;;;;;;;3.23;100.00;92554.91;2109309;28;20066;-84
2021/05/02 00:17:57;;;;;;;14.57;10.98;;;;;;;3.22;100.00;92563.97;2098461;28;20025;-83
2021/05/02 00:18:59;;;;;;;14.63;11.40;;;;;;;3.25;100.00;92558.69;2106721;28;20508;-85
2021/05/02 00:19:59;;;;;;;17.10;12.30;;;;;;;3.30;100.00;92557.53;2115376;28;20560;-81
2021/05/02 00:21:05;;;;;;;17.02;12.98;;;;;;;3.28;100.00;92557.91;2106764;28;20115;-85
2021/05/02 00:22:06;;;;;;;16.35;12.70;;;;;;;3.29;100.00;92563.94;2099373;28;20046;-84
2021/05/02 00:23:07;;;;;;;17.98;13.82;;;;;;;3.32;100.00;92562.41;2105997;28;20030;-83
2021/05/02 00:24:09;;;;;;;18.05;14.02;;;;;;;3.31;100.00;92559.03;2090147;28;20017;-84
2021/05/02 00:25:11;;;;;;;18.42;13.23;;;;;;;3.30;100.00;92570.75;2106626;28;20032;-84
2021/05/02 00:26:12;;;;;;;21.27;14.98;;;;;;;3.24;100.00;92561.69;2105193;28;20039;-83
2021/05/02 00:27:13;;;;;;;21.77;14.88;;;;;;;3.25;100.00;92561.31;2098015;28;20440;-82
2021/05/02 00:28:15;;;;;;;21.10;15.43;;;;;;;3.23;100.00;92566.22;2106664;28;20118;-83
2021/05/02 00:29:18;;;;;;;18.73;14.88;;;;;;;3.28;100.00;92567.72;2115211;28;20048;-83
2021/05/02 00:30:22;;;;;;;21.33;15.00;;;;;;;3.28;100.00;92573.00;2106876;28;20024;-83
2021/05/02 00:31:23;;;;;;;22.63;16.90;;;;;;;3.24;100.00;92567.72;2106943;28;20019;-83
2021/05/02 00:32:24;;;;;;;26.50;18.38;;;;;;;3.23;100.00;92566.22;2098074;28;20024;-84
2021/05/02 00:33:25;;;;;;;24.45;17.25;;;;;;;3.15;100.00;92571.91;2114851;28;20445;-83
2021/05/02 00:34:27;;;;;;;24.20;18.10;;;;;;;3.13;100.00;92567.00;2114928;28;20043;-83
2021/05/02 00:35:30;;;;;;;25.48;17.25;;;;;;;3.14;100.00;92573.03;2106728;28;20019;-81
2021/05/02 00:36:31;;;;;;;24.38;17.40;;;;;;;3.15;100.00;92566.63;2106894;28;20024;-83
2021/05/02 00:37:32;;;;;;;26.25;16.88;;;;;;;3.15;100.00;92570.00;2114611;28;20027;-83
2021/05/02 00:38:36;;;;;;;27.08;18.08;;;;;;;3.04;100.00;92579.84;2098166;28;20020;-83
2021/05/02 00:39:36;;;;;;;24.60;17.98;;;;;;;3.01;100.00;92573.44;2107321;27;20095;-82
2021/05/02 00:40:39;;;;;;;24.90;18.65;;;;;;;2.99;100.00;92575.72;2114885;28;20019;-85
2021/05/02 00:41:43;;;;;;;29.73;20.02;;;;;;;2.94;100.00;92575.34;2098733;28;20044;-85
2021/05/02 00:42:49;;;;;;;26.00;18.20;;;;;;;2.93;100.00;92573.84;2107282;27;20028;-85
2021/05/02 00:43:56;;;;;;;28.63;18.63;;;;;;;2.95;100.00;92580.25;2107100;28;20744;-83
2021/05/02 00:45:05;;;;;;;25.70;18.95;;;;;;;2.90;100.00;92578.00;2089853;28;20440;-82
2021/05/02 00:46:13;;;;;;;26.00;18.83;;;;;;;3.07;100.00;92586.25;2083901;28;20033;-83
2021/05/02 00:47:18;;;;;;;25.15;18.52;;;;;;;3.05;100.00;92581.34;2091210;28;20040;-85
2021/05/02 00:48:54;;;;;;;28.88;19.90;;;;;;;3.03;100.00;92589.66;2091096;28;20116;-82
2021/05/02 00:50:09;;;;;;;27.00;18.90;;;;;;;3.00;100.00;92579.13;2088241;28;20035;-84
2021/05/02 00:51:15;;;;;;;31.40;20.23;;;;;;;2.91;100.00;92587.44;2103451;27;20126;-84
2021/05/02 00:52:52;;;;;;;28.17;20.23;;;;;;;2.94;100.00;92586.69;2111766;28;20031;-86
2021/05/02 00:53:53;;;;;;;27.13;18.40;;;;;;;2.99;100.00;92583.66;2086172;28;20295;-83
2021/05/02 00:55:05;;;;;;;27.05;19.67;;;;;;;2.92;100.00;92591.56;2088664;28;20044;-85
2021/05/02 00:56:17;;;;;;;27.02;20.05;;;;;;;2.99;100.00;92590.81;2095696;28;20095;-87
2021/05/02 00:57:26;;;;;;;26.83;19.80;;;;;;;2.92;100.00;92591.56;2101059;28;20570;-86
2021/05/02 00:58:59;;;;;;;29.30;20.92;;;;;;;2.95;100.00;92598.72;2097866;28;20020;-86
2021/05/02 01:00:10;;;;;;;31.02;19.95;;;;;;;2.91;100.00;92597.22;2089570;28;20395;-83
2021/05/02 01:01:18;;;;;;;30.27;20.42;;;;;;;2.93;100.00;92594.94;2087197;28;20036;-84
2021/05/02 01:02:21;;;;;;;28.42;20.75;;;;;;;2.89;100.00;92597.59;2099636;28;20424;-81
2021/05/02 01:03:24;;;;;;;28.48;19.80;;;;;;;2.94;100.00;92594.59;2106457;28;20488;-82
2021/05/02 01:04:29;;;;;;;29.95;21.77;;;;;;;2.95;100.00;92597.97;2106851;28;20031;-81
2021/05/02 01:05:31;;;;;;;34.63;22.98;;;;;;;2.90;100.00;92599.13;2106346;28;20044;-83
2021/05/02 01:06:33;;;;;;;27.45;20.45;;;;;;;2.91;100.00;92600.63;2106491;28;20020;-81
2021/05/02 01:07:41;;;;;;;32.15;21.25;;;;;;;2.87;100.00;92593.84;2097974;28;20025;-84
2021/05/02 01:08:43;;;;;;;34.58;24.52;;;;;;;2.94;100.00;92597.22;2099838;28;20017;-83
2021/05/02 01:09:43;;;;;;;31.38;22.52;;;;;;;2.91;100.00;92600.63;2106461;28;20079;-83
2021/05/02 01:10:45;;;;;;;32.42;23.40;;;;;;;2.82;100.00;92596.88;2114763;28;20099;-85
2021/05/02 01:11:47;;;;;;;31.35;22.65;;;;;;;2.94;100.00;92596.44;2114865;28;20030;-83
2021/05/02 01:12:54;;;;;;;28.60;21.55;;;;;;;2.92;100.00;92604.00;2114574;28;20023;-83
2021/05/02 01:13:59;;;;;;;32.95;24.15;;;;;;;2.90;100.00;92604.41;2107489;27;20020;-83
2021/05/02 01:15:01;;;;;;;31.63;22.08;;;;;;;2.90;100.00;92607.03;2106713;28;20016;-83
2021/05/02 01:16:05;;;;;;;30.15;22.33;;;;;;;2.94;100.00;92607.78;2097985;28;20028;-82
2021/05/02 01:17:07;;;;;;;31.40;22.67;;;;;;;2.99;100.00;92612.69;2098505;28;20070;-84
2021/05/02 01:18:09;;;;;;;31.25;23.20;;;;;;;2.95;100.00;92606.66;2114764;28;20106;-84
2021/05/02 01:19:11;;;;;;;33.47;23.08;;;;;;;2.98;100.00;92605.88;2106318;28;20028;-82
2021/05/02 01:20:13;;;;;;;33.70;24.45;;;;;;;2.82;100.00;92610.06;2098363;28;20107;-85
2021/05/02 01:21:17;;;;;;;32.55;23.50;;;;;;;2.80;100.00;92605.16;2097995;28;20028;-82
2021/05/02 01:22:20;;;;;;;35.40;24.17;;;;;;;2.84;100.00;92613.81;2082127;28;20108;-82
2021/05/02 01:23:28;;;;;;;34.13;24.35;;;;;;;2.77;100.00;92614.59;2097502;28;20115;-85
2021/05/02 01:24:28;;;;;;;33.03;23.20;;;;;;;2.78;100.00;92613.44;2097600;28;20059;-83
2021/05/02 01:25:30;;;;;;;34.83;24.88;;;;;;;2.77;100.00;92611.19;2081000;28;20029;-83
2021/05/02 01:26:31;;;;;;;35.97;24.35;;;;;;;2.77;100.00;92614.59;2082846;28;20049;-84
2021/05/02 01:27:31;;;;;;;36.50;25.17;;;;;;;2.77;100.00;92614.59;2097884;28;20031;-84
2021/05/02 01:28:35;;;;;;;35.63;25.05;;;;;;;2.80;100.00;92613.06;2106196;28;20019;-82
2021/05/02 01:29:36;;;;;;;35.22;25.40;;;;;;;2.78;100.00;92612.69;2114574;28;20031;-84
2021/05/02 01:30:37;;;;;;;38.55;25.67;;;;;;;2.77;100.00;92616.47;2097584;28;20514;-81
2021/05/02 01:31:39;;;;;;;35.35;25.15;;;;;;;2.78;100.00;92624.00;2106436;28;20098;-84
2021/05/02 01:32:40;;;;;;;37.40;25.35;;;;;;;2.82;100.00;92623.25;2114374;28;20027;-83
2021/05/02 01:33:40;;;;;;;39.55;26.35;;;;;;;2.81;100.00;92622.50;2097519;28;20059;-87
2021/05/02 01:34:41;;;;;;;37.70;26.27;;;;;;;2.84;100.00;92629.66;2097657;28;20021;-84
2021/05/02 01:35:42;;;;;;;37.15;25.25;;;;;;;2.78;100.00;92624.00;2097635;28;20016;-87
2021/05/02 01:36:43;;;;;;;36.40;25.27;;;;;;;2.77;100.00;92630.41;2097766;28;20047;-85
2021/05/02 01:37:48;;;;;;;36.75;25.98;;;;;;;2.82;100.00;92617.97;2114219;28;20035;-83
2021/05/02 01:38:53;;;;;;;35.00;24.70;;;;;;;2.85;100.00;92627.75;2114421;28;20020;-86
2021/05/02 01:39:53;;;;;;;32.15;23.90;;;;;;;2.82;100.00;92631.19;2098705;28;20040;-85
2021/05/02 01:40:55;;;;;;;37.42;26.17;;;;;;;2.83;100.00;92627.41;2106047;28;20027;-83
2021/05/02 01:41:56;;;;;;;32.00;24.05;;;;;;;2.87;100.00;92633.44;2114459;27;20054;-83
2021/05/02 01:42:57;;;;;;;36.10;24.65;;;;;;;2.95;100.00;92630.41;2105909;28;20024;-85
2021/05/02 01:43:57;;;;;;;34.92;25.13;;;;;;;2.84;100.00;92629.66;2097706;28;20035;-82
2021/05/02 01:44:58;;;;;;;33.65;24.90;;;;;;;2.88;100.00;92633.03;2097765;28;20062;-85
2021/05/02 01:45:59;;;;;;;35.08;25.17;;;;;;;2.86;100.00;92631.94;2105936;28;20020;-82
2021/05/02 01:47:06;;;;;;;34.97;25.25;;;;;;;2.86;100.00;92632.69;2099944;28;20125;-83
2021/05/02 01:48:08;;;;;;;36.35;25.90;;;;;;;2.86;100.00;92635.31;2098245;28;20031;-86
2021/05/02 01:49:10;;;;;;;37.20;24.33;;;;;;;2.95;100.00;92635.69;2097658;28;20016;-85
2021/05/02 01:50:13;;;;;;;36.40;24.98;;;;;;;3.07;100.00;92642.44;2106098;28;20027;-84
2021/05/02 01:51:15;;;;;;;34.40;24.17;;;;;;;2.98;100.00;92642.81;2107980;28;20583;-84
2021/05/02 01:52:18;;;;;;;38.30;25.85;;;;;;;2.87;100.00;92639.47;2089523;28;20408;-83
2021/05/02 01:53:19;;;;;;;33.80;24.02;;;;;;;2.85;100.00;92641.72;2106305;28;20044;-84
2021/05/02 01:54:20;;;;;;;33.92;25.20;;;;;;;2.84;100.00;92639.47;2105974;28;20028;-83
2021/05/02 01:55:22;;;;;;;34.97;25.25;;;;;;;2.89;100.00;92644.34;2089364;28;20556;-83
2021/05/02 01:56:23;;;;;;;33.17;25.27;;;;;;;2.87;100.00;92647.38;2097371;28;20012;-83
2021/05/02 01:57:29;;;;;;;34.08;24.52;;;;;;;2.86;100.00;92648.53;2089528;28;20102;-86
2021/05/02 01:58:32;;;;;;;34.78;25.38;;;;;;;2.81;100.00;92645.47;2082303;28;20029;-84
2021/05/02 01:59:34;;;;;;;31.50;24.75;;;;;;;2.85;100.00;92643.59;2089839;28;20110;-83
2021/05/02 02:00:40;;;;;;;32.63;24.65;;;;;;;2.82;100.00;92645.13;2091945;28;20072;-86
2021/05/02 02:01:40;;;;;;;32.25;24.75;;;;;;;2.85;100.00;92641.72;2105655;28;20109;-85
2021/05/02 02:02:41;;;;;;;33.33;25.08;;;;;;;2.85;100.00;92639.06;2105551;28;20027;-82
2021/05/02 02:04:56;;;;;;;;;;;;;;;2.86;100.00;92643.25;2148577;27;20101;-83
2021/05/02 02:05:58;;;;;;;30.83;21.60;;;;;;;2.88;100.00;92642.84;2129873;27;19952;-82
2021/05/02 02:06:59;;;;;;;34.17;24.33;;;;;;;2.85;100.00;92651.53;2121530;27;20023;-83
2021/05/02 02:08:01;;;;;;;33.05;24.65;;;;;;;2.78;100.00;92653.03;2121269;28;20093;-83
2021/05/02 02:09:07;;;;;;;34.55;24.05;;;;;;;2.73;100.00;92650.78;2121145;27;20109;-83
2021/05/02 02:10:10;;;;;;;31.60;24.73;;;;;;;2.79;100.00;92653.78;2121979;27;20034;-84
2021/05/02 02:11:11;;;;;;;36.33;24.67;;;;;;;2.77;100.00;92661.34;2112957;28;20031;-84
2021/05/02 02:12:12;;;;;;;32.60;24.35;;;;;;;2.82;100.00;92657.56;2121314;28;20023;-84
2021/05/02 02:13:14;;;;;;;29.85;23.85;;;;;;;2.79;100.00;92659.06;2129853;27;20050;-83
2021/05/02 02:14:15;;;;;;;32.78;25.23;;;;;;;2.79;100.00;92661.72;2112400;28;20035;-83
2021/05/02 02:15:16;;;;;;;32.78;24.38;;;;;;;2.75;100.00;92659.06;2112813;28;20563;-83
2021/05/02 02:16:16;;;;;;;33.13;25.70;;;;;;;2.75;100.00;92659.06;2129765;27;20052;-84
2021/05/02 02:17:19;;;;;;;32.28;24.35;;;;;;;2.76;100.00;92657.94;2112814;28;20026;-84
2021/05/02 02:18:19;;;;;;;33.78;24.48;;;;;;;2.82;100.00;92660.22;2121494;27;20024;-84
2021/05/02 02:19:20;;;;;;;34.17;25.63;;;;;;;2.85;100.00;92657.53;2121182;27;20073;-83
2021/05/02 02:20:25;;;;;;;37.00;25.80;;;;;;;2.74;100.00;92662.09;2121221;28;20054;-86
2021/05/02 02:21:26;;;;;;;32.95;25.15;;;;;;;2.80;100.00;92663.22;2105197;28;20560;-84
2021/05/02 02:22:28;;;;;;;32.55;25.40;;;;;;;2.78;100.00;92666.22;2104385;28;20118;-83
2021/05/02 02:23:34;;;;;;;35.58;26.25;;;;;;;2.72;100.00;92656.41;2116578;28;20675;-82
2021/05/02 02:24:53;;;;;;;35.45;24.63;;;;;;;2.72;100.00;92665.13;2113327;28;20093;-84
2021/05/02 02:25:54;;;;;;;31.90;24.30;;;;;;;2.73;100.00;92668.50;2109099;28;20047;-84
2021/05/02 02:26:57;;;;;;;33.38;25.10;;;;;;;2.82;100.00;92665.50;2113044;27;20444;-85
2021/05/02 02:28:02;;;;;;;32.97;25.20;;;;;;;2.87;100.00;92671.13;2117606;27;20023;-85
2021/05/02 02:29:05;;;;;;;31.33;24.00;;;;;;;2.81;100.00;92672.66;2122156;27;20024;-84
2021/05/02 02:30:10;;;;;;;32.40;23.33;;;;;;;2.80;100.00;92670.38;2121447;27;20387;-84
2021/05/02 02:31:12;;;;;;;31.67;24.05;;;;;;;2.78;100.00;92670.75;2121681;27;20035;-84
2021/05/02 02:32:15;;;;;;;34.55;25.45;;;;;;;2.75;100.00;92671.50;2130027;27;20060;-83
2021/05/02 02:33:17;;;;;;;35.35;25.63;;;;;;;2.71;100.00;92662.84;2130173;27;20026;-83
2021/05/02 02:34:18;;;;;;;31.45;24.42;;;;;;;2.81;100.00;92671.88;2120995;27;20023;-84
2021/05/02 02:35:21;;;;;;;34.80;25.83;;;;;;;2.85;100.00;92676.03;2112842;27;20030;-83
2021/05/02 02:36:23;;;;;;;35.83;25.67;;;;;;;2.82;100.00;92674.16;2121752;27;20031;-84
2021/05/02 02:37:26;;;;;;;36.10;25.80;;;;;;;2.82;100.00;92668.13;2138077;27;20030;-83
2021/05/02 02:38:28;;;;;;;35.80;25.77;;;;;;;2.73;100.00;92681.69;2112722;27;20504;-82
2021/05/02 02:39:30;;;;;;;32.40;25.63;;;;;;;2.73;100.00;92681.69;2121758;27;20085;-82
2021/05/02 02:40:36;;;;;;;37.45;26.40;;;;;;;2.71;100.00;92674.13;2129742;27;20027;-83
2021/05/02 02:41:42;;;;;;;33.63;25.48;;;;;;;2.80;100.00;92683.56;2114018;27;20357;-83
2021/05/02 02:42:46;;;;;;;36.38;26.48;;;;;;;2.78;100.00;92678.69;2120786;27;20032;-84
2021/05/02 02:43:57;;;;;;;32.95;24.52;;;;;;;2.90;100.00;92680.94;2138683;27;20022;-82
2021/05/02 02:45:03;;;;;;;34.97;25.60;;;;;;;2.81;100.00;92677.16;2131165;27;20027;-84
2021/05/02 02:46:05;;;;;;;34.10;25.13;;;;;;;2.69;100.00;92686.97;2130382;27;20122;-84
2021/05/02 02:47:11;;;;;;;34.42;23.33;;;;;;;2.73;100.00;92687.72;2112849;28;20027;-87
2021/05/02 02:48:12;;;;;;;31.10;24.10;;;;;;;2.72;100.00;92685.44;2113093;28;20043;-86
2021/05/02 02:49:17;;;;;;;33.60;26.05;;;;;;;2.61;100.00;92680.16;2112492;28;20110;-86
2021/05/02 02:50:19;;;;;;;38.67;27.45;;;;;;;2.53;100.00;92681.28;2104759;28;20753;-85
2021/05/02 02:51:21;;;;;;;34.03;25.73;;;;;;;2.61;100.00;92689.97;2115962;27;20035;-84
2021/05/02 02:52:24;;;;;;;33.83;25.48;;;;;;;2.60;100.00;92680.56;2112653;28;20028;-83
2021/05/02 02:53:33;;;;;;;31.95;24.58;;;;;;;2.67;100.00;92683.19;2107023;28;20024;-84
2021/05/02 02:54:35;;;;;;;38.05;27.13;;;;;;;2.66;100.00;92692.22;2113351;28;20508;-83
2021/05/02 02:55:37;;;;;;;35.20;24.52;;;;;;;2.60;100.00;92683.94;2121513;27;20023;-83
2021/05/02 02:56:45;;;;;;;32.60;25.33;;;;;;;2.64;100.00;92689.22;2129572;27;20031;-83
2021/05/02 02:57:51;;;;;;;38.10;26.38;;;;;;;2.61;100.00;92692.59;2109950;28;20461;-83
2021/05/02 02:59:11;;;;;;;34.78;25.98;;;;;;;2.56;100.00;92685.81;2096973;28;20159;-83
2021/05/02 03:00:13;;;;;;;34.90;25.35;;;;;;;2.52;100.00;92685.06;2101073;28;20063;-82
2021/05/02 03:01:15;;;;;;;34.65;24.92;;;;;;;2.60;100.00;92683.19;2107667;28;20395;-85
2021/05/02 03:02:17;;;;;;;35.15;25.45;;;;;;;2.60;100.00;92686.59;2104064;28;20559;-86
2021/05/02 03:03:19;;;;;;;36.70;26.48;;;;;;;2.59;100.00;92694.84;2112796;28;20023;-85
2021/05/02 03:04:23;;;;;;;34.42;25.52;;;;;;;2.60;100.00;92688.47;2103784;28;20068;-84
2021/05/02 03:05:24;;;;;;;31.15;24.83;;;;;;;2.60;100.00;92686.59;2113317;27;20123;-84
2021/05/02 03:06:26;;;;;;;34.38;25.38;;;;;;;2.60;100.00;92691.84;2112506;28;20028;-82
2021/05/02 03:07:30;;;;;;;33.88;24.70;;;;;;;2.68;100.00;92690.00;2112851;27;20128;-83
2021/05/02 03:08:31;;;;;;;30.70;24.00;;;;;;;2.73;100.00;92697.53;2112910;28;20031;-83
2021/05/02 03:09:34;;;;;;;34.75;25.73;;;;;;;2.70;100.00;92693.75;2112324;28;20032;-84
2021/05/02 03:10:36;;;;;;;34.13;25.55;;;;;;;2.73;100.00;92697.53;2107548;28;20028;-84
2021/05/02 03:11:36;;;;;;;34.22;24.30;;;;;;;2.89;100.00;92695.25;2112595;28;20031;-85
2021/05/02 03:12:38;;;;;;;31.92;24.10;;;;;;;2.75;100.00;92697.91;2112383;28;20609;-85
2021/05/02 03:13:42;;;;;;;31.30;24.38;;;;;;;2.67;100.00;92704.28;2095780;28;20477;-85
2021/05/02 03:14:43;;;;;;;34.95;24.17;;;;;;;2.70;100.00;92696.38;2104456;28;20043;-85
2021/05/02 03:15:44;;;;;;;31.73;23.98;;;;;;;2.68;100.00;92695.25;2110172;28;20761;-85
2021/05/02 03:16:48;;;;;;;33.03;23.02;;;;;;;2.71;100.00;92695.25;2110598;28;20526;-86
2021/05/02 03:18:12;;;;;;;30.35;24.15;;;;;;;2.66;100.00;92697.50;2098624;28;20031;-84
2021/05/02 03:19:26;;;;;;;29.60;22.17;;;;;;;2.75;100.00;92698.66;2096458;28;20020;-84
2021/05/02 03:20:30;;;;;;;30.63;22.77;;;;;;;2.75;100.00;92695.25;2102217;28;20021;-85
2021/05/02 03:21:38;;;;;;;30.85;23.10;;;;;;;2.71;100.00;92694.50;2099340;28;20792;-82
2021/05/02 03:22:45;;;;;;;29.08;22.27;;;;;;;2.75;100.00;92700.53;2101499;28;20025;-83
2021/05/02 03:23:48;;;;;;;30.40;21.90;;;;;;;2.70;100.00;92699.03;2097621;28;20029;-84
2021/05/02 03:24:51;;;;;;;28.40;22.40;;;;;;;2.65;100.00;92699.41;2107024;28;20020;-83
2021/05/02 03:25:56;;;;;;;27.77;21.90;;;;;;;2.69;100.00;92704.69;2115450;28;20080;-83
2021/05/02 03:27:03;;;;;;;27.10;21.48;;;;;;;2.80;100.00;92700.16;2114817;28;20023;-82
2021/05/02 03:28:07;;;;;;;29.27;21.35;;;;;;;2.69;100.00;92702.03;2115005;28;20027;-84
2021/05/02 03:29:11;;;;;;;26.50;21.40;;;;;;;2.68;100.00;92701.28;2114534;28;20028;-84
2021/05/02 03:30:14;;;;;;;30.30;23.13;;;;;;;2.68;100.00;92700.53;2090947;28;20021;-84
2021/05/02 03:31:16;;;;;;;26.92;22.17;;;;;;;2.66;100.00;92714.09;2100987;28;20024;-84
2021/05/02 03:32:22;;;;;;;28.08;22.63;;;;;;;2.63;100.00;92696.38;2098506;28;20116;-83
2021/05/02 03:33:26;;;;;;;29.55;22.27;;;;;;;2.66;100.00;92708.81;2098436;28;20051;-83
2021/05/02 03:34:29;;;;;;;27.95;22.08;;;;;;;2.70;100.00;92703.53;2098999;28;20016;-83
2021/05/02 03:35:35;;;;;;;31.52;23.92;;;;;;;2.70;100.00;92703.53;2106658;28;20044;-83
2021/05/02 03:36:49;;;;;;;26.70;22.15;;;;;;;2.69;100.00;92702.78;2106495;28;20023;-85
2021/05/02 03:38:07;;;;;;;26.05;21.70;;;;;;;2.69;100.00;92704.69;2101797;28;20107;-85
2021/05/02 03:39:10;;;;;;;27.73;22.55;;;;;;;2.71;100.00;92705.06;2108875;28;20030;-83
2021/05/02 03:40:11;;;;;;;26.98;21.65;;;;;;;2.68;100.00;92708.47;2104662;28;20382;-83
2021/05/02 03:41:13;;;;;;;29.67;22.50;;;;;;;2.72;100.00;92714.47;2106494;28;20022;-83
2021/05/02 03:42:15;;;;;;;26.40;23.02;;;;;;;2.75;100.00;92716.38;2123623;27;20038;-83
2021/05/02 03:43:15;;;;;;;32.38;24.50;;;;;;;2.76;100.00;92715.22;2115060;28;20027;-83
2021/05/02 03:44:16;;;;;;;27.40;22.27;;;;;;;2.75;100.00;92713.72;2106496;28;20024;-83
2021/05/02 03:45:17;;;;;;;27.08;22.08;;;;;;;2.93;100.00;92705.81;2114810;28;20039;-83
2021/05/02 03:46:24;;;;;;;26.80;22.40;;;;;;;2.80;100.00;92718.63;2106453;28;20027;-83
2021/05/02 03:47:24;;;;;;;29.70;23.02;;;;;;;2.78;100.00;92716.38;2107346;28;20024;-83
2021/05/02 03:48:25;;;;;;;28.25;22.67;;;;;;;2.74;100.00;92720.13;2101919;28;20028;-83
2021/05/02 03:49:29;;;;;;;30.95;24.13;;;;;;;2.71;100.00;92720.88;2097958;28;20028;-85
2021/05/02 03:50:30;;;;;;;29.60;23.45;;;;;;;2.78;100.00;92721.66;2102634;28;20508;-85
2021/05/02 03:51:33;;;;;;;31.27;24.02;;;;;;;2.73;100.00;92723.91;2100093;28;20028;-85
2021/05/02 03:52:33;;;;;;;30.23;23.00;;;;;;;2.73;100.00;92718.63;2098126;28;20029;-85
2021/05/02 03:53:34;;;;;;;29.35;23.33;;;;;;;2.66;100.00;92729.19;2106283;28;20381;-85
2021/05/02 03:54:35;;;;;;;29.45;23.60;;;;;;;2.66;100.00;92719.38;2119067;27;20019;-85
2021/05/02 03:55:43;;;;;;;28.92;22.63;;;;;;;2.83;100.00;92725.81;2111769;28;20067;-85
2021/05/02 03:56:45;;;;;;;30.58;22.65;;;;;;;2.74;100.00;92726.16;2115855;28;20028;-85
2021/05/02 03:57:46;;;;;;;29.30;22.77;;;;;;;2.68;100.00;92729.56;2112357;28;20020;-85
2021/05/02 03:58:46;;;;;;;29.67;23.92;;;;;;;2.70;100.00;92730.69;2106338;28;20140;-86
2021/05/02 03:59:47;;;;;;;24.83;20.88;;;;;;;2.63;100.00;92735.19;2107826;28;20111;-86
2021/05/02 04:00:48;;;;;;;24.33;19.85;;;;;;;2.60;100.00;92736.72;2113659;28;20047;-85
2021/05/02 04:01:55;;;;;;;25.58;20.77;;;;;;;2.65;100.00;92736.34;2113794;28;20046;-85
2021/05/02 04:02:56;;;;;;;24.60;20.45;;;;;;;2.60;100.00;92733.31;2099462;28;20118;-86
2021/05/02 04:03:59;;;;;;;26.52;20.67;;;;;;;2.65;100.00;92746.88;2114620;28;20034;-86
2021/05/02 04:04:59;;;;;;;24.60;19.27;;;;;;;2.69;100.00;92744.25;2115388;28;20061;-85
2021/05/02 04:06:00;;;;;;;20.58;17.60;;;;;;;2.74;100.00;92736.72;2106265;28;20038;-86
2021/05/02 04:07:05;;;;;;;20.10;16.75;;;;;;;2.72;100.00;92746.13;2094152;28;20032;-86
2021/05/02 04:08:07;;;;;;;17.90;16.00;;;;;;;2.77;100.00;92740.50;2099258;28;20455;-86
2021/05/02 04:09:09;;;;;;;19.30;17.10;;;;;;;2.73;100.00;92747.66;2098140;28;20020;-85
2021/05/02 04:10:10;;;;;;;18.67;16.67;;;;;;;2.69;100.00;92747.66;2106695;27;20024;-85
2021/05/02 04:11:11;;;;;;;19.75;17.02;;;;;;;2.67;100.00;92747.25;2106254;28;20028;-86
2021/05/02 04:12:12;;;;;;;18.80;16.30;;;;;;;2.68;100.00;92748.78;2106389;28;20543;-86
2021/05/02 04:13:13;;;;;;;19.23;16.45;;;;;;;2.70;100.00;92751.03;2106358;28;20038;-86
2021/05/02 04:14:15;;;;;;;19.17;16.52;;;;;;;2.66;100.00;92752.91;2114116;28;20028;-86
2021/05/02 04:15:16;;;;;;;20.95;16.77;;;;;;;2.66;100.00;92753.66;2112021;28;20028;-86
2021/05/02 04:16:17;;;;;;;19.25;16.27;;;;;;;2.72;100.00;92748.78;2097983;28;20086;-86
2021/05/02 04:17:18;;;;;;;19.77;15.48;;;;;;;2.68;100.00;92761.97;2097993;28;20077;-85
2021/05/02 04:18:18;;;;;;;20.40;16.17;;;;;;;2.61;100.00;92758.56;2097906;28;20028;-85
2021/05/02 04:19:19;;;;;;;18.73;16.02;;;;;;;2.67;100.00;92759.69;2100894;28;20020;-85
2021/05/02 04:20:20;;;;;;;19.33;15.95;;;;;;;2.68;100.00;92759.34;2097841;28;20017;-86
2021/05/02 04:21:21;;;;;;;19.45;16.63;;;;;;;2.68;100.00;92761.22;2097769;28;20020;-85
2021/05/02 04:22:22;;;;;;;17.88;15.80;;;;;;;2.65;100.00;92769.88;2097677;28;20021;-85
2021/05/02 04:23:22;;;;;;;20.00;16.05;;;;;;;2.71;100.00;92763.09;2098929;28;20682;-85
2021/05/02 04:24:23;;;;;;;20.27;17.10;;;;;;;2.71;100.00;92765.75;2110878;28;20019;-85
2021/05/02 04:25:24;;;;;;;18.67;15.50;;;;;;;2.72;100.00;92770.66;2118285;27;20070;-86
2021/05/02 04:26:25;;;;;;;19.52;16.05;;;;;;;2.60;100.00;92763.09;2114099;28;20023;-84
2021/05/02 04:27:25;;;;;;;19.33;16.35;;;;;;;2.72;100.00;92769.88;2097374;28;20028;-86
2021/05/02 04:28:26;;;;;;;17.83;15.93;;;;;;;2.67;100.00;92773.66;2105582;28;20602;-85
2021/05/02 04:29:29;;;;;;;20.70;17.77;;;;;;;2.62;100.00;92766.09;2110384;28;20048;-85
2021/05/02 04:30:30;;;;;;;21.90;18.20;;;;;;;2.59;100.00;92771.38;2102565;28;20020;-85
2021/05/02 04:31:30;;;;;;;21.63;18.77;;;;;;;2.60;100.00;92773.66;2097701;28;20021;-87
2021/05/02 04:32:31;;;;;;;23.58;19.52;;;;;;;2.57;100.00;92776.28;2094119;28;20115;-86
2021/05/02 04:33:32;;;;;;;21.58;18.30;;;;;;;2.63;100.00;92780.78;2106333;28;20073;-84
2021/05/02 04:34:33;;;;;;;22.25;19.80;;;;;;;2.50;100.00;92782.25;2097744;28;20107;-85
2021/05/02 04:35:34;;;;;;;25.58;19.75;;;;;;;2.60;100.00;92778.16;2105961;28;20032;-84
2021/05/02 04:36:34;;;;;;;22.08;19.42;;;;;;;2.62;100.00;92779.28;2106081;28;20031;-85
2021/05/02 04:37:35;;;;;;;23.05;20.30;;;;;;;2.62;100.00;92781.19;2106185;28;20054;-85
2021/05/02 04:38:36;;;;;;;21.40;18.65;;;;;;;2.69;100.00;92781.97;2105871;28;20055;-84
2021/05/02 04:39:36;;;;;;;24.08;19.13;;;;;;;2.67;100.00;92789.47;2097767;28;20031;-86
2021/05/02 04:40:37;;;;;;;20.65;18.45;;;;;;;2.58;100.00;92791.72;2089445;28;20033;-87
2021/05/02 04:41:38;;;;;;;27.20;20.50;;;;;;;2.54;100.00;92788.31;2100758;28;20121;-85
2021/05/02 04:42:38;;;;;;;22.45;17.75;;;;;;;2.50;100.00;92795.47;2097687;28;20114;-85
2021/05/02 04:43:39;;;;;;;22.95;20.42;;;;;;;2.53;100.00;92792.84;2105966;28;20020;-84
2021/05/02 04:44:40;;;;;;;24.80;21.23;;;;;;;2.51;100.00;92789.81;2114335;28;20047;-85
2021/05/02 04:45:41;;;;;;;23.58;18.65;;;;;;;2.65;100.00;92796.28;2097689;28;20111;-84
2021/05/02 04:46:42;;;;;;;24.13;20.08;;;;;;;2.50;100.00;92798.88;2101012;28;20066;-86
2021/05/02 04:47:42;;;;;;;26.70;21.67;;;;;;;2.48;100.00;92798.47;2107991;28;20024;-85
2021/05/02 04:48:43;;;;;;;23.15;19.52;;;;;;;2.58;100.00;92799.63;2106005;28;20052;-84
2021/05/02 04:49:44;;;;;;;25.67;19.75;;;;;;;2.54;100.00;92798.88;2097702;28;20031;-85
2021/05/02 04:50:46;;;;;;;23.33;19.15;;;;;;;2.57;100.00;92795.50;2097979;28;20024;-85
2021/05/02 04:51:47;;;;;;;26.63;20.00;;;;;;;2.60;100.00;92802.66;2101859;28;20029;-85